Immagine casuale
Testata Regione Lazio ARSIAL SIARL

Ultima Misura Rilevata

Temperatura, Umidità, Pioggia, Pressione Radiazione Solare, Venti, Evapotraspirazione, ecc.
Temperature diurne e notturne Direzione vento Legenda
Prov Stazione Data TMin TMed TMax UMed Pioggia PMed
FR ALATRI Basciano 23/04/2018 11,5 18,5 27,9 66 0 1.016
FR ALVITO Az. Ist. S. Benedetto 23/04/2018 8,9 16,6 24,6 78 0 1.019
FR ANAGNI La Gloria 23/04/2018 9,1 17,2 26 72 0 1.018
FR ARPINO Vigne Piane 23/04/2018 11,6 17,5 26,1 71 0,2 1.018
FR BOVILLE ERNICA Sasso 23/04/2018 11,2 18,5 27,5 75 0 1.019
FR ESPERIA Modale 23/04/2018 10,6 17,6 27,6 73 0 1.021
FR PASTENA Acero 23/04/2018 8,8 16,7 27,4 82 0 1.020
FR PIGLIO Civitella 23/04/2018 8,8 17 26,9 72 0 1.025
FR PONTECORVO Melfi di Sotto 23/04/2018 11,1 18,2 28,3 82 0 ----
FR S. ELIA FIUMERAPIDO Portella 23/04/2018 12,5 18,4 27,3 81 0 1.018
FR S. GIORGIO A LIRI Porto 23/04/2018 11,6 18,3 28,2 83 0 1.019
FR SGURGOLA Campo Lungo 23/04/2018 N.D. N.D. N.D. N.D. N.D. ----
FR VALLECORSA Serbatoio comunale 23/04/2018 12,3 17,7 25,6 73 0 1.020
LT APRILIA Le Ferriere 23/04/2018 10,6 17,9 26,2 76 0 1.018
LT CISTERNA B.go Carso 23/04/2018 7,7 16,3 24,3 83 0 ----
LT CISTERNA Doganella di Ninfa 23/04/2018 9,3 17,8 26,6 73 0 1.018
LT CORI Portone 23/04/2018 9,8 17,8 26,9 71 0 1.018
LT FONDI Capratica 23/04/2018 10,5 17,7 24 84 0 1.018
LT FORMIA Loc. Gianola 23/04/2018 16,8 19,1 23,5 81 0 ----
LT ITRI Valle Quercia 23/04/2018 13 17,3 22,9 82 0,2 1.017
LT MAENZA Casacotta 23/04/2018 11,1 17,8 25,5 77 0 1.021
LT MINTURNO Pulcherini 23/04/2018 15,4 18,3 22,9 91 0 1.017
LT PONTINIA Cotarda 23/04/2018 8 17,2 26 80 0 1.020
LT SABAUDIA Acquaviva 23/04/2018 10,5 16,8 22,9 87 0,2 1.018
LT SONNINO Frasso 23/04/2018 13,3 19,1 27 51 0 1.019
RI ACCUMOLI Terracino 23/04/2018 10,9 15,7 22,2 56 0 1.017
RI BORGOVELINO Ponte Basso 23/04/2018 7,4 16,4 26,3 70 0 1.021
RI CANTALUPO S. Francesco 23/04/2018 8,7 17,5 26,3 77 0 ----
RI CASTEL DI TORA Monte di Tora 23/04/2018 8,1 16,1 26 74 0 1.020
RI CASTELNUOVO FARFA C. Spadone 23/04/2018 9,8 18,2 27,5 78 0 ----
RI CONFIGNI Portella 23/04/2018 10,8 18,6 26,8 67 0 1.017
RI FARA SABINA Canneto 23/04/2018 12,6 19,4 27,6 64 0 1.023
RI FARA SABINA Sant'Andrea 23/04/2018 N.D. N.D. N.D. N.D. N.D. ----
RI MONTELEONE S. Prato Camino 23/04/2018 10,4 17,8 26,7 68 0 1.022
RI MONTOPOLI IN SABINA Colle Arcone 23/04/2018 9,9 17,8 26,5 78 0 ----
RI MONTOPOLI IN SABINA Villa Caprola 23/04/2018 10,3 19,2 28,5 82 0 ----
RI POGGIO CATINO Pastine 23/04/2018 11,6 18,2 26,3 80 0 ----
RI POGGIO NATIVO Casali 23/04/2018 12 18,2 24,8 71 0 ----
RI RIETI Piana di Rieti 23/04/2018 7,2 16,8 25,7 62 0 1.019
RI SCANDRIGLIA Ponticelli 23/04/2018 11,7 17,8 24,2 76 0 ----
RM AGOSTA La Cisterna 23/04/2018 9,1 16,8 28,1 73 0 1.022
RM BRACCIANO Prato Pianciano 23/04/2018 8,9 17,9 28,5 66 0 1.020
RM CANALE MONTERANO Monte Virginio 23/04/2018 6,5 16 27,1 73 0 1.020
RM CERVETERI Campo di Mare 23/04/2018 8,9 15,7 21,1 80 0 ----
RM CIVITELLA S.PAOLO Le Cese 23/04/2018 9,7 18,2 27,9 72 0 1.020
RM FIUMICINO Maccarese 23/04/2018 8,6 16,5 22,4 88 0,2 1.018
RM FIUMICINO Testa di Lepre 23/04/2018 10,1 17 23,8 85 0,2 ----
RM FORMELLO Perazzeta 23/04/2018 11,2 18 24,3 76 0 ----
RM FRASCATI Prata Porci 23/04/2018 9,9 17,9 26,4 68 0 1.018
RM GENAZZANO Coop. La Sonnina 23/04/2018 10,4 17,6 24,9 66 0 1.019
RM GROTTAFERRATA Valle Marciana 23/04/2018 10,8 17,5 25,5 63 0 1.017
RM LICENZA Colle Franco 23/04/2018 9,2 16,2 25,6 65 0 1.018
RM MARCELLINA V. Campetella 23/04/2018 11,3 17,7 25,9 78 0 ----
RM MARINO Gotto d'Oro 23/04/2018 11,7 18,4 24,9 73 0 1.017
RM MONTECOMPATRI Colle Mattia 23/04/2018 9,3 17,4 25,7 68 0 1.018
RM MONTECOMPATRI Pantano Borghese 23/04/2018 6,9 16,4 27,2 75 0 1.021
RM MONTELIBRETTI Bruciati 23/04/2018 9,1 17,1 27,2 77 0 ----
RM MONTEPORZIO Camaldoli 23/04/2018 11 16,1 22,6 65 0 1.019
RM MONTEROTONDO Grotta Marozza 23/04/2018 10,6 18 25,5 73 0 1.020
RM PALOMBARA Fonte Grande 23/04/2018 7,7 16,3 26,7 74 0 ----
RM ROMA Capocotta 23/04/2018 12 16,3 22 87 0,2 ----
RM ROMA Ponte di Nona 23/04/2018 10,8 18,5 26,1 77 0 1.018
RM ROMA Via Lanciani 38 23/04/2018 13,9 19,5 25,2 71 0 1.018
RM S. GREGORIO C. Faustiniano 23/04/2018 11,5 17,6 25 65 0 1.015
RM VELLETRI Cantina Sperimentale 23/04/2018 10,1 17,7 26,1 65 0 1.022
RM VELLETRI Prato Lungo 23/04/2018 10,4 17,5 24,9 69 0 ----
RM ZAGAROLO Santa Apollara 23/04/2018 11,7 18,1 25,2 66 0,2 ----
VT ACQUAPENDENTE Falconiera 23/04/2018 7 16,4 26,2 66 0 1.022
VT BAGNOREGIO Castell Cellesi 23/04/2018 10 16,9 23,9 69 0 ----
VT BASSANO R. Piano Mola 23/04/2018 10,3 17,6 27 66 0 1.021
VT BLERA Puntoni 23/04/2018 8,2 16,3 24,1 74 0 1.018
VT BOLSENA Capone 23/04/2018 7,1 16,5 27,2 75 0 1.021
VT BOLSENA Rentica 23/04/2018 7,2 15,2 24 81 0,2 ----
VT CANINO Diga Timone 23/04/2018 8,2 16,7 25,8 76 0 1.021
VT CANINO Pianacce 23/04/2018 7,8 16,3 24 77 0 1.018
VT CANINO San Valeriano 23/04/2018 11,1 19 25,2 75 0,2 ----
VT CELLENO Acquaforte 23/04/2018 8,7 16,1 23,7 82 0 ----
VT CORCHIANO Pantalone 23/04/2018 7,6 17,6 28,2 73 0 1.019
VT FARNESE Gressa 23/04/2018 7,2 16 23,9 75 0,1 ----
VT FARNESE Pian di Sala 23/04/2018 4,2 14,5 25,2 77 0,1 ----
VT GROTTE DI CASTRO Borghetto 23/04/2018 6,1 15,8 26,2 75 0 1.025
VT GROTTE DI CASTRO Purgatorio 23/04/2018 6,7 16,7 26,3 66 0,2 1.022
VT LATERA Centro Florovivaistico 23/04/2018 4,6 15,7 25,4 71 0,2 1.020
VT MONTALTO Le Murelle 23/04/2018 10,7 16,4 21,7 83 0 1.017
VT MONTALTO Pescia Romana 23/04/2018 7,3 16,2 25,4 90 0,2 1.018
VT MONTEFIASCONE Commenda 23/04/2018 9 17,2 23,9 78 0,1 ----
VT RONCIGLIONE Ponterotto 23/04/2018 8,6 16,9 26,6 69 N.D. ----
VT SORIANO CIMINO Pantane 23/04/2018 5,3 16,2 26,5 71 0 1.020
VT SORIANO CIMINO Poggio di Chia 23/04/2018 N.D. N.D. N.D. N.D. N.D. ----
VT TARQUINIA Portaccia 23/04/2018 10,6 16,9 22,3 83 0,1 ----
VT TUSCANIA Montebello 23/04/2018 10,5 16,9 22 76 0,2 ----
VT VETRALLA Marchionato 23/04/2018 8,4 16,3 23,5 79 0 ----
VT VITERBO Pisello 23/04/2018 8,3 16,5 23,3 80 0 ----
N.D. = Dati Non Disponibili
---- = Sensore non presente

Le misure esposte sono grezze, ovvero non sono state validate